Omemee, Canada
Current Conditions -  °F | °C
As of 7:00 AM on Monday 26 Jan 2015 (Local Time) from CYPQ Reporting Station
Overcast Overcast  
Wind Chill: -12°   Ceiling: 18000
Heat Index:   Visibility: 9mi
Dew Point: -6°   Wind: 8mph
Humidity: 72%   Direction: 50°NE
Pressure: 30.06"   Gusts: NA
Location:  44.3°N, 78.56°W
Report Text: CYPQ 261200Z AUTO 05007KT 9SM BKN180 OVC200 M17/M21 A3006 RMK SLP196
Loading
Personal Weather Stations






























Interactive Weather Map New forecast layout! Learn more

10-Day Weather Forecast

Advertisements
Track Severe Weather on mobile